createdAt,value
2018-09-03T00:00:40.056Z,0.00
2018-09-03T00:01:39.984Z,0.00
2018-09-03T00:02:39.912Z,0.00
2018-09-03T00:03:39.838Z,0.00
2018-09-03T00:04:39.765Z,0.00
2018-09-03T00:05:39.694Z,0.00
2018-09-03T00:06:39.620Z,0.00
2018-09-03T00:07:39.548Z,0.00
2018-09-03T00:08:39.479Z,0.00
2018-09-03T00:09:39.402Z,0.00
2018-09-03T00:10:39.328Z,0.00
2018-09-03T00:11:39.264Z,0.00
2018-09-03T00:12:39.182Z,0.00
2018-09-03T00:13:39.111Z,0.00
2018-09-03T00:14:39.036Z,0.00
2018-09-03T00:15:38.964Z,0.00
2018-09-03T00:16:38.889Z,0.00
2018-09-03T00:17:38.817Z,0.00
2018-09-03T00:18:38.745Z,0.00
2018-09-03T00:19:38.823Z,0.00
2018-09-03T00:20:38.598Z,0.00
2018-09-03T00:21:38.525Z,0.00
2018-09-03T00:22:38.455Z,0.00
2018-09-03T00:23:38.381Z,0.00
2018-09-03T00:24:38.307Z,0.00
2018-09-03T00:25:38.234Z,0.00
2018-09-03T00:26:38.162Z,0.00
2018-09-03T00:27:38.090Z,0.00
2018-09-03T00:28:38.016Z,0.00
2018-09-03T00:29:37.943Z,0.00
2018-09-03T00:30:37.920Z,0.00
2018-09-03T00:31:37.799Z,0.00
2018-09-03T00:32:37.725Z,0.00
2018-09-03T00:33:37.651Z,0.00
2018-09-03T00:34:37.580Z,0.00
2018-09-03T00:35:37.506Z,0.00
2018-09-03T00:36:37.433Z,0.00
2018-09-03T00:37:37.361Z,0.00
2018-09-03T00:38:37.287Z,0.00
2018-09-03T00:39:37.216Z,0.00
2018-09-03T00:40:37.141Z,0.00
2018-09-03T00:41:37.069Z,0.00
2018-09-03T00:42:36.997Z,0.00
2018-09-03T00:43:36.924Z,0.00
2018-09-03T00:44:36.851Z,0.00
2018-09-03T00:45:36.778Z,0.00
2018-09-03T00:46:36.706Z,0.00
2018-09-03T00:47:36.634Z,0.00
2018-09-03T00:48:36.560Z,0.00
2018-09-03T00:49:36.488Z,0.00
2018-09-03T00:50:36.414Z,0.00
2018-09-03T00:51:36.342Z,0.00
2018-09-03T00:52:36.269Z,0.00
2018-09-03T00:53:36.197Z,0.00
2018-09-03T00:54:36.124Z,0.00
2018-09-03T00:55:36.051Z,0.00
2018-09-03T00:56:35.978Z,0.00
2018-09-03T00:57:35.905Z,0.00
2018-09-03T00:58:35.835Z,0.00
2018-09-03T00:59:35.760Z,0.00
2018-09-03T01:00:35.688Z,0.00
2018-09-03T01:01:35.618Z,0.00
2018-09-03T01:02:35.541Z,0.00
2018-09-03T01:03:35.469Z,0.00
2018-09-03T01:04:35.395Z,0.00
2018-09-03T01:05:35.325Z,0.00
2018-09-03T01:06:35.251Z,0.00
2018-09-03T01:07:35.178Z,0.00
2018-09-03T01:08:35.104Z,0.00
2018-09-03T01:09:35.032Z,0.00
2018-09-03T01:10:34.959Z,0.00
2018-09-03T01:11:34.885Z,0.00
2018-09-03T01:12:34.812Z,0.00
2018-09-03T01:13:34.741Z,0.00
2018-09-03T01:14:34.668Z,0.00
2018-09-03T01:15:34.598Z,0.00
2018-09-03T01:16:34.522Z,0.00
2018-09-03T01:17:34.449Z,0.00
2018-09-03T01:18:34.375Z,0.00
2018-09-03T01:19:34.305Z,0.00
2018-09-03T01:20:34.231Z,0.00
2018-09-03T01:21:34.158Z,0.00
2018-09-03T01:22:34.086Z,0.00
2018-09-03T01:23:34.015Z,0.00
2018-09-03T01:24:33.939Z,0.00
2018-09-03T01:25:33.868Z,0.00
2018-09-03T01:26:33.793Z,0.00
2018-09-03T01:27:33.720Z,0.00
2018-09-03T01:28:33.647Z,0.00
2018-09-03T01:29:33.615Z,0.00
2018-09-03T01:30:33.503Z,0.00
2018-09-03T01:31:33.429Z,0.00
2018-09-03T01:32:33.355Z,0.00
2018-09-03T01:33:33.283Z,0.00
2018-09-03T01:34:33.215Z,0.00
2018-09-03T01:35:33.137Z,0.00
2018-09-03T01:36:33.065Z,0.00
2018-09-03T01:37:32.991Z,0.00
2018-09-03T01:38:32.919Z,0.00
2018-09-03T01:39:32.846Z,0.00
2018-09-03T01:40:32.773Z,0.00
2018-09-03T01:41:32.699Z,0.00
2018-09-03T01:42:32.626Z,0.00
2018-09-03T01:43:32.554Z,0.00
2018-09-03T01:44:32.481Z,0.00
2018-09-03T01:45:32.408Z,0.00
2018-09-03T01:46:32.335Z,0.00
2018-09-03T01:47:32.262Z,0.00
2018-09-03T01:48:32.188Z,0.00
2018-09-03T01:49:32.115Z,0.00
2018-09-03T01:50:32.043Z,0.00
2018-09-03T01:51:31.971Z,0.00
2018-09-03T01:52:31.898Z,0.00
2018-09-03T01:53:31.828Z,0.00
2018-09-03T01:54:31.753Z,0.00
2018-09-03T01:55:31.679Z,0.00
2018-09-03T01:56:31.607Z,0.00
2018-09-03T01:57:31.534Z,0.00
2018-09-03T01:58:31.462Z,0.00
2018-09-03T01:59:31.389Z,0.00
2018-09-03T02:00:31.323Z,0.00
2018-09-03T02:01:31.242Z,0.00
2018-09-03T02:02:31.170Z,0.00
2018-09-03T02:03:31.100Z,0.00
2018-09-03T02:04:31.024Z,0.00
2018-09-03T02:05:30.952Z,0.00
2018-09-03T02:06:30.879Z,0.00
2018-09-03T02:07:30.808Z,0.00
2018-09-03T02:08:30.732Z,0.00
2018-09-03T02:09:30.658Z,0.00
2018-09-03T02:10:30.588Z,0.00
2018-09-03T02:11:30.515Z,0.00
2018-09-03T02:12:30.441Z,0.00
2018-09-03T02:13:30.368Z,0.00
2018-09-03T02:14:30.296Z,0.00
2018-09-03T02:15:30.223Z,0.00
2018-09-03T02:16:30.150Z,0.00
2018-09-03T02:17:30.076Z,0.00
2018-09-03T02:18:30.003Z,0.00
2018-09-03T02:19:29.931Z,0.00
2018-09-03T02:20:29.860Z,0.00
2018-09-03T02:21:29.785Z,0.00
2018-09-03T02:22:29.714Z,0.00
2018-09-03T02:23:29.639Z,0.00
2018-09-03T02:24:29.566Z,0.00
2018-09-03T02:25:29.496Z,0.00
2018-09-03T02:26:29.420Z,0.00
2018-09-03T02:27:29.347Z,0.00
2018-09-03T02:28:29.274Z,0.00
2018-09-03T02:29:29.204Z,0.00
2018-09-03T02:30:29.129Z,0.00
2018-09-03T02:31:29.056Z,0.00
2018-09-03T02:32:28.984Z,0.00
2018-09-03T02:33:28.909Z,0.00
2018-09-03T02:34:28.839Z,0.00
2018-09-03T02:35:28.766Z,0.00
2018-09-03T02:36:28.690Z,0.00
2018-09-03T02:37:28.617Z,0.00
2018-09-03T02:38:28.543Z,0.00
2018-09-03T02:39:28.473Z,0.00
2018-09-03T02:40:28.397Z,0.00
2018-09-03T02:41:28.327Z,0.00
2018-09-03T02:42:28.252Z,0.00
2018-09-03T02:43:28.178Z,0.00
2018-09-03T02:44:28.104Z,0.00
2018-09-03T02:45:28.032Z,0.00
2018-09-03T02:46:27.960Z,0.00
2018-09-03T02:47:27.885Z,0.00
2018-09-03T02:48:27.817Z,0.00
2018-09-03T02:49:27.838Z,0.00
2018-09-03T02:50:27.666Z,0.00
2018-09-03T02:51:27.594Z,0.00
2018-09-03T02:52:27.524Z,0.00
2018-09-03T02:53:27.446Z,0.00
2018-09-03T02:54:27.374Z,0.00
2018-09-03T02:55:27.301Z,0.00
2018-09-03T02:56:27.227Z,0.00
2018-09-03T02:57:27.155Z,0.00
2018-09-03T02:58:27.082Z,0.00
2018-09-03T02:59:27.010Z,0.00
2018-09-03T03:00:26.935Z,0.00
2018-09-03T03:01:26.863Z,0.00
2018-09-03T03:02:26.790Z,0.00
2018-09-03T03:03:26.717Z,0.00
2018-09-03T03:04:26.643Z,0.00
2018-09-03T03:05:26.571Z,0.00
2018-09-03T03:06:26.498Z,0.00
2018-09-03T03:07:26.428Z,0.00
2018-09-03T03:08:26.351Z,0.00
2018-09-03T03:09:26.288Z,0.00
2018-09-03T03:10:26.206Z,0.00
2018-09-03T03:11:26.134Z,0.00
2018-09-03T03:12:26.060Z,0.00
2018-09-03T03:13:25.987Z,0.00
2018-09-03T03:14:25.921Z,0.00
2018-09-03T03:15:25.842Z,0.00
2018-09-03T03:16:25.767Z,0.00
2018-09-03T03:17:25.695Z,0.00
2018-09-03T03:18:25.622Z,0.00
2018-09-03T03:19:25.581Z,0.00
2018-09-03T03:20:25.476Z,0.00
2018-09-03T03:21:25.403Z,0.00
2018-09-03T03:22:25.330Z,0.00
2018-09-03T03:23:25.259Z,0.00
2018-09-03T03:24:25.185Z,0.00
2018-09-03T03:25:25.112Z,0.00
2018-09-03T03:26:25.040Z,0.00
2018-09-03T03:27:24.965Z,0.00
2018-09-03T03:28:24.893Z,0.00
2018-09-03T03:29:24.818Z,0.00
2018-09-03T03:30:24.748Z,0.00
2018-09-03T03:31:24.679Z,0.00
2018-09-03T03:32:24.600Z,0.00
2018-09-03T03:33:24.531Z,0.00
2018-09-03T03:34:24.455Z,0.00
2018-09-03T03:35:24.382Z,0.00
2018-09-03T03:36:24.308Z,0.00
2018-09-03T03:37:24.235Z,0.00
2018-09-03T03:38:24.162Z,0.00
2018-09-03T03:39:24.090Z,0.00
2018-09-03T03:40:24.015Z,0.00
2018-09-03T03:41:23.942Z,0.00
2018-09-03T03:42:23.869Z,0.00
2018-09-03T03:43:23.797Z,0.00
2018-09-03T03:44:23.722Z,0.00
2018-09-03T03:45:23.650Z,0.00
2018-09-03T03:46:23.577Z,0.00
2018-09-03T03:47:23.511Z,0.00
2018-09-03T03:48:23.430Z,0.00
2018-09-03T03:49:23.361Z,0.00
2018-09-03T03:50:23.286Z,0.00
2018-09-03T03:51:23.213Z,0.00
2018-09-03T03:52:23.139Z,0.00
2018-09-03T03:53:23.067Z,0.00
2018-09-03T03:54:22.994Z,0.00
2018-09-03T03:55:22.921Z,0.00
2018-09-03T03:56:22.847Z,0.00
2018-09-03T03:57:22.775Z,0.00
2018-09-03T03:58:22.706Z,0.00
2018-09-03T03:59:22.630Z,0.00
2018-09-03T04:00:22.559Z,0.00
2018-09-03T04:01:22.483Z,0.00
2018-09-03T04:02:22.413Z,0.00
2018-09-03T04:03:22.338Z,0.00
2018-09-03T04:04:22.271Z,0.00
2018-09-03T04:05:22.190Z,0.00
2018-09-03T04:06:22.119Z,0.00
2018-09-03T04:07:22.046Z,0.00
2018-09-03T04:08:21.972Z,0.00
2018-09-03T04:09:21.899Z,0.00
2018-09-03T04:10:21.826Z,0.00
2018-09-03T04:11:21.753Z,0.00
2018-09-03T04:12:21.680Z,0.00
2018-09-03T04:13:21.607Z,0.00
2018-09-03T04:14:21.534Z,0.00
2018-09-03T04:15:21.461Z,0.00
2018-09-03T04:16:21.388Z,0.00
2018-09-03T04:17:21.315Z,0.00
2018-09-03T04:18:21.242Z,4.00
2018-09-03T04:19:21.170Z,4.00
2018-09-03T04:20:21.097Z,4.00
2018-09-03T04:21:21.029Z,4.00
2018-09-03T04:22:20.952Z,0.00
2018-09-03T04:23:21.095Z,4.00
2018-09-03T04:24:20.806Z,8.00
2018-09-03T04:25:20.733Z,4.00
2018-09-03T04:26:20.660Z,8.00
2018-09-03T04:27:20.586Z,8.00
2018-09-03T04:28:20.513Z,8.00
2018-09-03T04:29:20.444Z,8.00
2018-09-03T04:30:20.369Z,12.00
2018-09-03T04:31:20.295Z,12.00
2018-09-03T04:32:20.221Z,12.00
2018-09-03T04:33:20.153Z,16.00
2018-09-03T04:34:20.077Z,16.00
2018-09-03T04:35:20.005Z,20.00
2018-09-03T04:36:19.930Z,24.00
2018-09-03T04:37:19.858Z,20.00
2018-09-03T04:38:19.786Z,20.00
2018-09-03T04:39:19.715Z,20.00
2018-09-03T04:40:19.641Z,24.00
2018-09-03T04:41:19.566Z,28.00
2018-09-03T04:42:19.495Z,24.00
2018-09-03T04:43:19.421Z,32.00
2018-09-03T04:44:19.347Z,32.00
2018-09-03T04:45:19.278Z,32.00
2018-09-03T04:46:19.203Z,36.00
2018-09-03T04:47:19.132Z,36.00
2018-09-03T04:48:19.067Z,40.00
2018-09-03T04:49:18.983Z,40.00
2018-09-03T04:50:18.915Z,44.00
2018-09-03T04:51:18.840Z,48.00
2018-09-03T04:52:18.766Z,52.00
2018-09-03T04:53:18.694Z,52.00
2018-09-03T04:54:18.621Z,56.00
2018-09-03T04:55:18.620Z,56.00
2018-09-03T04:56:18.475Z,56.00
2018-09-03T04:57:18.403Z,64.00
2018-09-03T04:58:18.330Z,72.00
2018-09-03T04:59:18.258Z,80.00
2018-09-03T05:00:18.184Z,96.00
2018-09-03T05:01:18.111Z,112.00
2018-09-03T05:02:18.039Z,128.00
2018-09-03T05:03:17.965Z,148.00
2018-09-03T05:04:17.893Z,164.00
2018-09-03T05:05:17.824Z,176.00
2018-09-03T05:06:17.748Z,188.00
2018-09-03T05:07:17.675Z,204.00
2018-09-03T05:08:17.601Z,224.00
2018-09-03T05:09:17.528Z,248.00
2018-09-03T05:10:17.455Z,280.00
2018-09-03T05:11:17.384Z,320.00
2018-09-03T05:12:17.310Z,364.00
2018-09-03T05:13:17.238Z,404.00
2018-09-03T05:14:17.163Z,432.00
2018-09-03T05:15:17.093Z,464.00
2018-09-03T05:16:17.018Z,492.00
2018-09-03T05:17:16.946Z,500.00
2018-09-03T05:18:16.873Z,500.00
2018-09-03T05:19:16.802Z,508.00
2018-09-03T05:20:16.732Z,524.00
2018-09-03T05:21:16.655Z,536.00
2018-09-03T05:22:16.583Z,556.00
2018-09-03T05:23:16.510Z,580.00
2018-09-03T05:24:16.436Z,624.00
2018-09-03T05:25:16.369Z,664.00
2018-09-03T05:26:16.291Z,704.00
2018-09-03T05:27:16.221Z,720.00
2018-09-03T05:28:16.145Z,720.00
2018-09-03T05:29:16.074Z,704.00
2018-09-03T05:30:16.002Z,672.00
2018-09-03T05:31:15.973Z,652.00
2018-09-03T05:32:15.856Z,636.00
2018-09-03T05:33:15.783Z,632.00
2018-09-03T05:34:15.712Z,620.00
2018-09-03T05:35:15.639Z,592.00
2018-09-03T05:36:15.565Z,560.00
2018-09-03T05:37:15.495Z,544.00
2018-09-03T05:38:15.426Z,548.00
2018-09-03T05:39:15.352Z,576.00
2018-09-03T05:40:15.276Z,628.00
2018-09-03T05:41:15.203Z,688.00
2018-09-03T05:42:15.131Z,752.00
2018-09-03T05:43:15.100Z,816.00
2018-09-03T05:44:14.986Z,872.00
2018-09-03T05:45:14.913Z,912.00
2018-09-03T05:46:14.839Z,932.00
2018-09-03T05:47:14.772Z,964.00
2018-09-03T05:48:14.695Z,984.00
2018-09-03T05:49:14.672Z,996.00
2018-09-03T05:50:14.601Z,1012.00
2018-09-03T05:51:14.478Z,1056.00
2018-09-03T05:52:14.403Z,1072.00
2018-09-03T05:53:14.332Z,1068.00
2018-09-03T05:54:14.262Z,1072.00
2018-09-03T05:55:14.187Z,1124.00
2018-09-03T05:56:14.114Z,1124.00
2018-09-03T05:57:14.046Z,1128.00
2018-09-03T05:58:13.969Z,1120.00
2018-09-03T05:59:14.059Z,1124.00
2018-09-03T06:00:13.823Z,1124.00
2018-09-03T06:01:13.752Z,1100.00
2018-09-03T06:02:13.684Z,1028.00
2018-09-03T06:03:13.607Z,936.00
2018-09-03T06:04:13.535Z,856.00
2018-09-03T06:05:13.461Z,804.00
2018-09-03T06:06:13.389Z,784.00
2018-09-03T06:07:13.316Z,792.00
2018-09-03T06:08:13.244Z,808.00
2018-09-03T06:09:13.175Z,820.00
2018-09-03T06:10:13.099Z,840.00
2018-09-03T06:11:13.045Z,864.00
2018-09-03T06:12:12.954Z,860.00
2018-09-03T06:13:12.882Z,872.00
2018-09-03T06:14:12.812Z,860.00
2018-09-03T06:15:12.737Z,836.00
2018-09-03T06:16:12.663Z,824.00
2018-09-03T06:17:12.596Z,828.00
2018-09-03T06:18:12.519Z,844.00
2018-09-03T06:19:12.448Z,868.00
2018-09-03T06:20:12.374Z,916.00
2018-09-03T06:21:12.303Z,976.00
2018-09-03T06:22:12.231Z,1016.00
2018-09-03T06:23:12.159Z,1040.00
2018-09-03T06:24:12.086Z,1056.00
2018-09-03T06:25:12.014Z,1088.00
2018-09-03T06:26:11.942Z,1136.00
2018-09-03T06:27:11.875Z,1172.00
2018-09-03T06:28:11.797Z,1184.00
2018-09-03T06:29:11.725Z,1196.00
2018-09-03T06:30:11.654Z,1204.00
2018-09-03T06:31:11.581Z,1216.00
2018-09-03T06:32:11.507Z,1220.00
2018-09-03T06:33:11.436Z,1260.00
2018-09-03T06:34:11.365Z,1332.00
2018-09-03T06:35:11.291Z,1400.00
2018-09-03T06:36:11.219Z,1448.00
2018-09-03T06:37:11.150Z,1544.00
2018-09-03T06:38:11.075Z,1644.00
2018-09-03T06:39:11.031Z,1664.00
2018-09-03T06:40:10.930Z,1608.00
2018-09-03T06:41:10.858Z,1564.00
2018-09-03T06:42:10.785Z,1620.00
2018-09-03T06:43:10.715Z,1752.00
2018-09-03T06:44:10.640Z,1904.00
2018-09-03T06:45:10.569Z,2052.00
2018-09-03T06:46:10.497Z,2152.00
2018-09-03T06:47:10.425Z,2256.00
2018-09-03T06:48:10.351Z,2240.00
2018-09-03T06:49:10.281Z,2216.00
2018-09-03T06:50:10.209Z,2228.00
2018-09-03T06:51:10.136Z,2260.00
2018-09-03T06:52:10.063Z,2232.00
2018-09-03T06:53:09.992Z,2176.00
2018-09-03T06:54:09.920Z,2336.00
2018-09-03T06:55:09.849Z,2412.00
2018-09-03T06:56:09.776Z,2424.00
2018-09-03T06:57:09.706Z,2528.00
2018-09-03T06:58:09.631Z,2644.00
2018-09-03T06:59:09.560Z,2608.00
2018-09-03T07:00:09.485Z,2536.00
2018-09-03T07:01:09.415Z,2564.00
2018-09-03T07:02:09.344Z,2560.00
2018-09-03T07:03:09.271Z,2580.00
2018-09-03T07:04:09.200Z,2596.00
2018-09-03T07:05:09.128Z,2632.00
2018-09-03T07:06:09.055Z,2756.00
2018-09-03T07:07:08.984Z,2868.00
2018-09-03T07:08:08.910Z,2932.00
2018-09-03T07:09:08.841Z,2896.00
2018-09-03T07:10:08.767Z,2544.00
2018-09-03T07:11:08.695Z,2304.00
2018-09-03T07:12:08.622Z,2528.00
2018-09-03T07:13:08.550Z,2672.00
2018-09-03T07:14:08.478Z,2764.00
2018-09-03T07:15:08.407Z,2928.00
2018-09-03T07:16:08.333Z,3188.00
2018-09-03T07:17:08.264Z,3260.00
2018-09-03T07:18:08.193Z,3212.00
2018-09-03T07:19:08.120Z,3184.00
2018-09-03T07:20:08.046Z,3108.00
2018-09-03T07:21:07.974Z,2984.00
2018-09-03T07:22:07.904Z,2776.00
2018-09-03T07:23:07.833Z,2428.00
2018-09-03T07:24:07.760Z,2060.00
2018-09-03T07:25:07.688Z,1936.00
2018-09-03T07:26:07.615Z,1884.00
2018-09-03T07:27:07.545Z,1972.00
2018-09-03T07:28:07.472Z,2244.00
2018-09-03T07:29:07.402Z,2596.00
2018-09-03T07:30:07.332Z,2908.00
2018-09-03T07:31:07.258Z,3156.00
2018-09-03T07:32:07.186Z,3324.00
2018-09-03T07:33:07.114Z,3456.00
2018-09-03T07:34:07.042Z,3596.00
2018-09-03T07:35:06.995Z,3804.00
2018-09-03T07:36:06.898Z,4032.00
2018-09-03T07:37:06.825Z,4308.00
2018-09-03T07:38:06.755Z,4724.00
2018-09-03T07:39:06.689Z,4864.00
2018-09-03T07:40:06.612Z,4848.00
2018-09-03T07:41:06.541Z,4704.00
2018-09-03T07:42:06.468Z,4732.00
2018-09-03T07:43:06.397Z,4932.00
2018-09-03T07:44:06.385Z,5392.00
2018-09-03T07:45:06.253Z,5604.00
2018-09-03T07:46:06.183Z,5404.00
2018-09-03T07:47:06.111Z,5472.00
2018-09-03T07:48:06.039Z,5844.00
2018-09-03T07:49:05.968Z,6044.00
2018-09-03T07:50:05.902Z,6340.00
2018-09-03T07:51:05.918Z,6648.00
2018-09-03T07:52:05.753Z,6892.00
2018-09-03T07:53:05.783Z,7260.00
2018-09-03T07:54:05.628Z,7456.00
2018-09-03T07:55:05.569Z,7572.00
2018-09-03T07:56:05.469Z,7500.00
2018-09-03T07:57:05.395Z,7644.00
2018-09-03T07:58:05.325Z,7616.00
2018-09-03T07:59:05.253Z,7184.00
2018-09-03T08:00:05.182Z,7812.00
2018-09-03T08:01:05.143Z,7796.00
2018-09-03T08:02:05.041Z,7364.00
2018-09-03T08:03:04.970Z,7068.00
2018-09-03T08:04:04.897Z,6668.00
2018-09-03T08:05:04.826Z,5984.00
2018-09-03T08:06:04.755Z,5676.00
2018-09-03T08:07:04.685Z,5544.00
2018-09-03T08:08:04.616Z,5740.00
2018-09-03T08:09:04.543Z,5788.00
2018-09-03T08:10:04.473Z,5912.00
2018-09-03T08:11:04.402Z,6564.00
2018-09-03T08:12:04.331Z,6292.00
2018-09-03T08:13:04.354Z,6312.00
2018-09-03T08:14:04.188Z,6008.00
2018-09-03T08:15:04.118Z,6260.00
2018-09-03T08:16:04.047Z,6536.00
2018-09-03T08:17:03.976Z,6784.00
2018-09-03T08:18:03.905Z,6492.00
2018-09-03T08:19:03.837Z,6296.00
2018-09-03T08:20:03.844Z,6172.00
2018-09-03T08:21:03.694Z,5752.00
2018-09-03T08:22:03.622Z,5408.00
2018-09-03T08:23:03.552Z,5504.00
2018-09-03T08:24:03.481Z,5624.00
2018-09-03T08:25:03.411Z,5756.00
2018-09-03T08:26:03.339Z,5916.00
2018-09-03T08:27:03.269Z,6440.00
2018-09-03T08:28:03.197Z,7076.00
2018-09-03T08:29:03.127Z,6876.00
2018-09-03T08:30:03.064Z,6952.00
2018-09-03T08:31:02.986Z,7732.00
2018-09-03T08:32:02.940Z,8040.00
2018-09-03T08:33:02.850Z,8568.00
2018-09-03T08:34:02.774Z,9840.00
2018-09-03T08:35:02.703Z,10588.00
2018-09-03T08:36:02.634Z,9812.00
2018-09-03T08:37:02.563Z,9720.00
2018-09-03T08:38:02.492Z,9504.00
2018-09-03T08:39:02.420Z,8468.00
2018-09-03T08:40:02.369Z,8204.00
2018-09-03T08:41:02.280Z,8648.00
2018-09-03T08:42:02.210Z,8072.00
2018-09-03T08:43:02.141Z,7360.00
2018-09-03T08:44:02.069Z,7396.00
2018-09-03T08:45:02.003Z,7316.00
2018-09-03T08:46:01.932Z,7164.00
2018-09-03T08:47:01.858Z,7244.00
2018-09-03T08:48:01.788Z,6868.00
2018-09-03T08:49:01.718Z,6476.00
2018-09-03T08:50:01.647Z,6020.00
2018-09-03T08:51:01.578Z,5536.00
2018-09-03T08:52:01.507Z,5764.00
2018-09-03T08:53:01.436Z,5948.00
2018-09-03T08:54:01.366Z,5248.00
2018-09-03T08:55:01.296Z,4968.00
2018-09-03T08:56:01.225Z,5264.00
2018-09-03T08:57:01.155Z,5392.00
2018-09-03T08:58:01.085Z,5088.00
2018-09-03T08:59:01.015Z,4884.00
2018-09-03T09:00:00.946Z,4932.00
2018-09-03T09:01:00.876Z,5120.00
2018-09-03T09:02:00.803Z,5424.00
2018-09-03T09:03:00.733Z,5880.00
2018-09-03T09:04:00.661Z,6428.00
2018-09-03T09:05:00.592Z,6744.00
2018-09-03T09:06:00.521Z,6792.00
2018-09-03T09:07:00.450Z,6824.00
2018-09-03T09:08:00.380Z,6804.00
2018-09-03T09:09:00.309Z,6820.00
2018-09-03T09:10:00.239Z,6800.00
2018-09-03T09:11:00.169Z,6700.00
2018-09-03T09:12:00.097Z,6564.00
2018-09-03T09:13:00.027Z,6420.00
2018-09-03T09:13:59.958Z,6352.00
2018-09-03T09:14:59.888Z,6432.00
2018-09-03T09:15:59.816Z,6868.00
2018-09-03T09:16:59.746Z,8960.00
2018-09-03T09:17:59.674Z,10856.00
2018-09-03T09:18:59.605Z,11092.00
2018-09-03T09:19:59.534Z,11888.00
2018-09-03T09:20:59.464Z,11720.00
2018-09-03T09:21:59.394Z,11468.00
2018-09-03T09:22:59.324Z,10960.00
2018-09-03T09:23:59.255Z,9864.00
2018-09-03T09:24:59.203Z,8892.00
2018-09-03T09:25:59.115Z,8612.00
2018-09-03T09:26:59.045Z,8792.00
2018-09-03T09:27:59.007Z,8872.00
2018-09-03T09:28:58.905Z,8776.00
2018-09-03T09:29:58.835Z,9516.00
2018-09-03T09:30:58.767Z,10200.00
2018-09-03T09:31:58.696Z,10616.00
2018-09-03T09:32:58.630Z,10936.00
2018-09-03T09:33:58.557Z,11224.00
2018-09-03T09:34:58.488Z,11268.00
2018-09-03T09:35:58.418Z,11092.00
2018-09-03T09:36:58.348Z,11516.00
2018-09-03T09:37:58.283Z,11800.00
2018-09-03T09:38:58.222Z,11764.00
2018-09-03T09:39:58.139Z,11564.00
2018-09-03T09:40:58.070Z,11636.00
2018-09-03T09:41:57.999Z,11536.00
2018-09-03T09:42:57.947Z,10672.00
2018-09-03T09:43:57.860Z,10348.00
2018-09-03T09:44:57.797Z,10148.00
2018-09-03T09:45:57.724Z,10172.00
2018-09-03T09:46:57.654Z,10828.00
2018-09-03T09:47:57.583Z,11484.00
2018-09-03T09:48:57.515Z,11592.00
2018-09-03T09:49:57.447Z,10700.00
2018-09-03T09:50:57.380Z,9832.00
2018-09-03T09:51:57.307Z,9392.00
2018-09-03T09:52:57.240Z,8568.00
2018-09-03T09:53:57.169Z,8240.00
2018-09-03T09:54:57.180Z,7548.00
2018-09-03T09:55:57.030Z,7572.00
2018-09-03T09:56:56.961Z,8776.00
2018-09-03T09:57:56.892Z,11356.00
2018-09-03T09:58:56.823Z,12612.00
2018-09-03T09:59:56.753Z,12000.00
2018-09-03T10:00:56.684Z,11252.00
2018-09-03T10:01:56.615Z,10960.00
2018-09-03T10:02:56.545Z,10708.00
2018-09-03T10:03:56.476Z,11204.00
2018-09-03T10:04:56.407Z,12216.00
2018-09-03T10:05:56.337Z,11132.00
2018-09-03T10:06:56.268Z,9384.00
2018-09-03T10:07:56.199Z,9420.00
2018-09-03T10:08:56.130Z,10688.00
2018-09-03T10:09:56.061Z,12340.00
2018-09-03T10:10:55.992Z,13320.00
2018-09-03T10:11:55.923Z,13764.00
2018-09-03T10:12:55.856Z,13984.00
2018-09-03T10:13:55.785Z,13868.00
2018-09-03T10:14:55.718Z,13152.00
2018-09-03T10:15:55.647Z,12548.00
2018-09-03T10:16:55.578Z,10544.00
2018-09-03T10:17:55.509Z,10548.00
2018-09-03T10:18:55.441Z,10628.00
2018-09-03T10:19:55.372Z,11076.00
2018-09-03T10:20:55.361Z,10792.00
2018-09-03T10:21:55.234Z,11300.00
2018-09-03T10:22:55.166Z,12320.00
2018-09-03T10:23:55.101Z,13324.00
2018-09-03T10:24:55.028Z,14004.00
2018-09-03T10:25:54.959Z,14384.00
2018-09-03T10:26:54.893Z,14800.00
2018-09-03T10:27:54.822Z,15232.00
2018-09-03T10:28:54.753Z,15880.00
2018-09-03T10:29:54.685Z,16544.00
2018-09-03T10:30:54.616Z,15408.00
2018-09-03T10:31:54.569Z,13244.00
2018-09-03T10:32:54.480Z,11616.00
2018-09-03T10:33:54.411Z,10296.00
2018-09-03T10:34:54.343Z,10596.00
2018-09-03T10:35:54.273Z,11168.00
2018-09-03T10:36:54.206Z,11544.00
2018-09-03T10:37:54.136Z,9840.00
2018-09-03T10:38:54.070Z,8220.00
2018-09-03T10:39:54.000Z,7052.00
2018-09-03T10:40:53.931Z,6432.00
2018-09-03T10:41:53.863Z,6476.00
2018-09-03T10:42:53.794Z,7088.00
2018-09-03T10:43:53.724Z,8272.00
2018-09-03T10:44:53.656Z,9692.00
2018-09-03T10:45:53.589Z,11164.00
2018-09-03T10:46:53.549Z,12112.00
2018-09-03T10:47:53.450Z,11992.00
2018-09-03T10:48:53.382Z,11988.00
2018-09-03T10:49:53.315Z,12428.00
2018-09-03T10:50:53.244Z,11188.00
2018-09-03T10:51:53.175Z,10784.00
2018-09-03T10:52:53.106Z,12160.00
2018-09-03T10:53:53.037Z,12628.00
2018-09-03T10:54:52.973Z,12216.00
2018-09-03T10:55:52.898Z,10924.00
2018-09-03T10:56:52.838Z,10168.00
2018-09-03T10:57:52.763Z,9180.00
2018-09-03T10:58:52.695Z,7524.00
2018-09-03T10:59:52.625Z,6408.00
2018-09-03T11:00:52.557Z,6700.00
2018-09-03T11:01:52.488Z,6912.00
2018-09-03T11:02:52.421Z,7096.00
2018-09-03T11:03:52.351Z,7132.00
2018-09-03T11:04:52.284Z,7196.00
2018-09-03T11:05:52.214Z,7304.00
2018-09-03T11:06:52.145Z,7800.00
2018-09-03T11:07:52.076Z,8072.00
2018-09-03T11:08:52.008Z,8696.00
2018-09-03T11:09:51.939Z,8660.00
2018-09-03T11:10:51.874Z,8768.00
2018-09-03T11:11:51.801Z,8776.00
2018-09-03T11:12:51.733Z,9284.00
2018-09-03T11:13:51.665Z,9608.00
2018-09-03T11:14:51.595Z,9808.00
2018-09-03T11:15:51.527Z,9392.00
2018-09-03T11:16:51.457Z,10396.00
2018-09-03T11:17:51.390Z,12332.00
2018-09-03T11:18:51.320Z,11920.00
2018-09-03T11:19:51.298Z,11588.00
2018-09-03T11:20:51.184Z,11116.00
2018-09-03T11:21:51.116Z,10976.00
2018-09-03T11:22:51.048Z,10756.00
2018-09-03T11:23:50.978Z,9948.00
2018-09-03T11:24:50.908Z,8684.00
2018-09-03T11:25:50.840Z,7468.00
2018-09-03T11:26:50.803Z,6660.00
2018-09-03T11:27:50.704Z,6420.00
2018-09-03T11:28:50.744Z,6532.00
2018-09-03T11:29:50.572Z,6888.00
2018-09-03T11:30:50.497Z,7000.00
2018-09-03T11:31:50.428Z,7092.00
2018-09-03T11:32:50.360Z,7384.00
2018-09-03T11:33:50.291Z,8156.00
2018-09-03T11:34:50.222Z,9184.00
2018-09-03T11:35:50.153Z,10020.00
2018-09-03T11:36:50.085Z,10808.00
2018-09-03T11:37:50.016Z,11352.00
2018-09-03T11:38:49.947Z,10868.00
2018-09-03T11:39:49.878Z,9900.00
2018-09-03T11:40:49.812Z,8636.00
2018-09-03T11:41:49.741Z,7748.00
2018-09-03T11:42:49.674Z,7576.00
2018-09-03T11:43:49.605Z,7844.00
2018-09-03T11:44:49.534Z,8692.00
2018-09-03T11:45:49.467Z,8936.00
2018-09-03T11:46:49.398Z,9604.00
2018-09-03T11:47:49.327Z,9676.00
2018-09-03T11:48:49.265Z,9752.00
2018-09-03T11:49:49.191Z,9704.00
2018-09-03T11:50:49.123Z,9640.00
2018-09-03T11:51:49.053Z,9420.00
2018-09-03T11:52:48.985Z,9412.00
2018-09-03T11:53:48.916Z,9504.00
2018-09-03T11:54:48.846Z,9148.00
2018-09-03T11:55:48.777Z,8268.00
2018-09-03T11:56:48.710Z,7568.00
2018-09-03T11:57:48.644Z,7076.00
2018-09-03T11:58:48.573Z,6860.00
2018-09-03T11:59:48.504Z,6812.00
2018-09-03T12:00:48.437Z,6984.00
2018-09-03T12:01:48.367Z,7188.00
2018-09-03T12:02:48.304Z,7292.00
2018-09-03T12:03:48.229Z,7556.00
2018-09-03T12:04:48.162Z,7784.00
2018-09-03T12:05:48.093Z,8000.00
2018-09-03T12:06:48.052Z,8076.00
2018-09-03T12:07:47.956Z,8212.00
2018-09-03T12:08:47.888Z,8204.00
2018-09-03T12:09:47.821Z,8244.00
2018-09-03T12:10:47.751Z,8352.00
2018-09-03T12:11:47.681Z,8448.00
2018-09-03T12:12:47.614Z,8704.00
2018-09-03T12:13:47.547Z,8724.00
2018-09-03T12:14:47.476Z,8584.00
2018-09-03T12:15:47.409Z,8252.00
2018-09-03T12:16:47.341Z,7900.00
2018-09-03T12:17:47.270Z,7860.00
2018-09-03T12:18:47.202Z,8156.00
2018-09-03T12:19:47.133Z,8272.00
2018-09-03T12:20:47.113Z,8180.00
2018-09-03T12:21:46.995Z,8048.00
2018-09-03T12:22:46.927Z,7932.00
2018-09-03T12:23:46.857Z,7628.00
2018-09-03T12:24:46.789Z,7444.00
2018-09-03T12:25:46.721Z,7404.00
2018-09-03T12:26:46.652Z,7208.00
2018-09-03T12:27:46.713Z,7148.00
2018-09-03T12:28:46.514Z,7216.00
2018-09-03T12:29:46.446Z,7312.00
2018-09-03T12:30:46.380Z,7396.00